createdAt,value
2019-01-15T00:00:03.451Z,987.53
2019-01-15T00:01:03.390Z,987.56
2019-01-15T00:02:03.327Z,987.55
2019-01-15T00:03:03.266Z,987.61
2019-01-15T00:04:03.207Z,987.58
2019-01-15T00:05:03.143Z,987.59
2019-01-15T00:06:03.082Z,987.60
2019-01-15T00:07:03.023Z,987.63
2019-01-15T00:08:02.964Z,987.63
2019-01-15T00:09:02.900Z,987.62
2019-01-15T00:10:02.838Z,987.66
2019-01-15T00:11:02.775Z,987.63
2019-01-15T00:12:07.779Z,987.65
2019-01-15T00:13:02.657Z,987.63
2019-01-15T00:14:02.591Z,987.64
2019-01-15T00:15:02.531Z,987.68
2019-01-15T00:16:02.471Z,987.63
2019-01-15T00:17:02.408Z,987.69
2019-01-15T00:18:02.347Z,987.69
2019-01-15T00:19:02.288Z,987.67
2019-01-15T00:20:02.226Z,987.72
2019-01-15T00:21:02.162Z,987.77
2019-01-15T00:22:02.102Z,987.75
2019-01-15T00:23:02.041Z,987.82
2019-01-15T00:24:01.983Z,987.79
2019-01-15T00:25:01.924Z,987.81
2019-01-15T00:26:02.748Z,987.77
2019-01-15T00:27:01.795Z,987.79
2019-01-15T00:28:01.737Z,987.79
2019-01-15T00:29:01.672Z,987.83
2019-01-15T00:30:01.613Z,987.74
2019-01-15T00:31:01.556Z,987.75
2019-01-15T00:32:01.492Z,987.70
2019-01-15T00:33:01.434Z,987.72
2019-01-15T00:34:01.368Z,987.74
2019-01-15T00:35:01.310Z,987.70
2019-01-15T00:36:01.247Z,987.64
2019-01-15T00:37:01.183Z,987.60
2019-01-15T00:38:01.121Z,987.62
2019-01-15T00:39:01.068Z,987.64
2019-01-15T00:40:00.998Z,987.66
2019-01-15T00:41:00.938Z,987.61
2019-01-15T00:42:00.875Z,987.61
2019-01-15T00:43:00.817Z,987.61
2019-01-15T00:44:00.754Z,987.65
2019-01-15T00:45:00.693Z,987.66
2019-01-15T00:46:00.636Z,987.73
2019-01-15T00:47:00.569Z,987.64
2019-01-15T00:48:00.510Z,987.66
2019-01-15T00:49:00.446Z,987.63
2019-01-15T00:50:00.386Z,987.63
2019-01-15T00:51:00.324Z,987.62
2019-01-15T00:52:00.265Z,987.72
2019-01-15T00:53:00.200Z,987.71
2019-01-15T00:54:00.142Z,987.73
2019-01-15T00:55:00.227Z,987.80
2019-01-15T00:56:00.018Z,987.75
2019-01-15T00:56:59.956Z,987.75
2019-01-15T00:57:59.897Z,987.79
2019-01-15T00:58:59.836Z,987.84
2019-01-15T00:59:59.774Z,987.80
2019-01-15T01:00:59.711Z,987.83
2019-01-15T01:01:59.650Z,987.85
2019-01-15T01:02:59.591Z,987.85
2019-01-15T01:03:59.527Z,987.82
2019-01-15T01:04:59.466Z,987.88
2019-01-15T01:05:59.405Z,987.90
2019-01-15T01:06:59.342Z,987.86
2019-01-15T01:07:59.282Z,987.88
2019-01-15T01:08:59.221Z,987.94
2019-01-15T01:09:59.158Z,987.93
2019-01-15T01:10:59.099Z,987.94
2019-01-15T01:11:59.036Z,987.97
2019-01-15T01:12:58.976Z,988.01
2019-01-15T01:13:58.915Z,988.02
2019-01-15T01:14:58.854Z,988.06
2019-01-15T01:15:58.792Z,988.10
2019-01-15T01:16:58.730Z,988.09
2019-01-15T01:17:58.667Z,988.13
2019-01-15T01:18:58.606Z,988.07
2019-01-15T01:19:58.546Z,988.08
2019-01-15T01:20:58.490Z,988.14
2019-01-15T01:21:58.424Z,988.13
2019-01-15T01:22:58.363Z,988.11
2019-01-15T01:23:58.301Z,988.15
2019-01-15T01:24:58.240Z,988.17
2019-01-15T01:25:58.177Z,988.22
2019-01-15T01:26:58.117Z,988.17
2019-01-15T01:27:58.054Z,988.16
2019-01-15T01:28:57.994Z,988.20
2019-01-15T01:29:57.932Z,988.24
2019-01-15T01:30:57.871Z,988.24
2019-01-15T01:31:57.811Z,988.24
2019-01-15T01:32:57.749Z,988.23
2019-01-15T01:33:57.699Z,988.32
2019-01-15T01:34:57.625Z,988.36
2019-01-15T01:35:57.564Z,988.35
2019-01-15T01:36:57.503Z,988.33
2019-01-15T01:37:57.446Z,988.35
2019-01-15T01:38:57.380Z,988.36
2019-01-15T01:39:57.319Z,988.39
2019-01-15T01:40:57.257Z,988.42
2019-01-15T01:41:57.198Z,988.47
2019-01-15T01:42:57.134Z,988.45
2019-01-15T01:43:57.073Z,988.47
2019-01-15T01:44:57.011Z,988.44
2019-01-15T01:45:56.950Z,988.45
2019-01-15T01:46:56.889Z,988.48
2019-01-15T01:47:56.829Z,988.42
2019-01-15T01:48:56.766Z,988.48
2019-01-15T01:49:56.710Z,988.47
2019-01-15T01:50:56.649Z,988.52
2019-01-15T01:51:56.583Z,988.52
2019-01-15T01:52:56.521Z,988.54
2019-01-15T01:53:56.459Z,988.52
2019-01-15T01:54:56.399Z,988.59
2019-01-15T01:55:56.394Z,988.56
2019-01-15T01:56:56.277Z,988.59
2019-01-15T01:57:56.214Z,988.59
2019-01-15T01:58:56.153Z,988.57
2019-01-15T01:59:56.091Z,988.59
2019-01-15T02:00:56.029Z,988.58
2019-01-15T02:01:56.366Z,988.60
2019-01-15T02:02:55.908Z,988.60
2019-01-15T02:03:55.846Z,988.64
2019-01-15T02:04:55.789Z,988.60
2019-01-15T02:05:55.724Z,988.60
2019-01-15T02:06:55.662Z,988.57
2019-01-15T02:07:55.601Z,988.60
2019-01-15T02:08:55.538Z,988.63
2019-01-15T02:09:55.478Z,988.61
2019-01-15T02:10:55.417Z,988.63
2019-01-15T02:11:55.355Z,988.63
2019-01-15T02:12:55.295Z,988.66
2019-01-15T02:13:55.232Z,988.61
2019-01-15T02:14:55.171Z,988.65
2019-01-15T02:15:55.111Z,988.65
2019-01-15T02:16:55.047Z,988.63
2019-01-15T02:17:54.986Z,988.64
2019-01-15T02:18:54.926Z,988.62
2019-01-15T02:19:54.864Z,988.61
2019-01-15T02:20:54.803Z,988.64
2019-01-15T02:21:54.741Z,988.63
2019-01-15T02:22:54.680Z,988.60
2019-01-15T02:23:54.620Z,988.59
2019-01-15T02:24:54.558Z,988.62
2019-01-15T02:25:54.495Z,988.60
2019-01-15T02:26:54.435Z,988.62
2019-01-15T02:27:54.373Z,988.62
2019-01-15T02:28:54.312Z,988.63
2019-01-15T02:29:54.252Z,988.61
2019-01-15T02:30:54.189Z,988.64
2019-01-15T02:31:54.128Z,988.59
2019-01-15T02:32:54.070Z,988.61
2019-01-15T02:33:54.005Z,988.61
2019-01-15T02:34:53.943Z,988.60
2019-01-15T02:35:53.881Z,988.66
2019-01-15T02:36:53.821Z,988.68
2019-01-15T02:37:53.759Z,988.69
2019-01-15T02:38:53.700Z,988.70
2019-01-15T02:39:53.636Z,988.68
2019-01-15T02:40:53.575Z,988.73
2019-01-15T02:41:53.514Z,988.70
2019-01-15T02:42:53.465Z,988.69
2019-01-15T02:43:53.392Z,988.74
2019-01-15T02:44:53.329Z,988.70
2019-01-15T02:45:53.268Z,988.71
2019-01-15T02:46:53.206Z,988.74
2019-01-15T02:47:53.145Z,988.70
2019-01-15T02:48:53.084Z,988.68
2019-01-15T02:49:53.025Z,988.66
2019-01-15T02:50:52.962Z,988.67
2019-01-15T02:51:52.901Z,988.64
2019-01-15T02:52:52.836Z,988.62
2019-01-15T02:53:52.778Z,988.65
2019-01-15T02:54:52.715Z,988.63
2019-01-15T02:55:52.655Z,988.57
2019-01-15T02:56:52.592Z,988.58
2019-01-15T02:57:52.531Z,988.62
2019-01-15T02:58:52.473Z,988.64
2019-01-15T02:59:52.408Z,988.61
2019-01-15T03:00:52.347Z,988.56
2019-01-15T03:01:52.284Z,988.59
2019-01-15T03:02:52.226Z,988.59
2019-01-15T03:03:52.161Z,988.62
2019-01-15T03:04:52.100Z,988.67
2019-01-15T03:05:52.040Z,988.67
2019-01-15T03:06:51.978Z,988.66
2019-01-15T03:07:51.916Z,988.68
2019-01-15T03:08:51.865Z,988.70
2019-01-15T03:09:51.793Z,988.74
2019-01-15T03:10:51.731Z,988.69
2019-01-15T03:11:51.673Z,988.75
2019-01-15T03:12:55.888Z,988.71
2019-01-15T03:13:51.548Z,988.79
2019-01-15T03:14:51.486Z,988.75
2019-01-15T03:15:51.425Z,988.78
2019-01-15T03:16:51.363Z,988.75
2019-01-15T03:17:51.305Z,988.84
2019-01-15T03:18:51.241Z,988.86
2019-01-15T03:19:51.179Z,988.86
2019-01-15T03:20:51.121Z,988.85
2019-01-15T03:21:51.058Z,988.81
2019-01-15T03:22:50.996Z,988.76
2019-01-15T03:23:50.934Z,988.71
2019-01-15T03:24:50.875Z,988.60
2019-01-15T03:25:50.810Z,988.67
2019-01-15T03:26:50.751Z,988.66
2019-01-15T03:27:50.691Z,988.73
2019-01-15T03:28:50.626Z,988.65
2019-01-15T03:29:50.565Z,988.70
2019-01-15T03:30:50.542Z,988.66
2019-01-15T03:31:50.446Z,988.74
2019-01-15T03:32:50.539Z,988.71
2019-01-15T03:33:50.319Z,988.81
2019-01-15T03:34:50.260Z,988.79
2019-01-15T03:35:50.196Z,988.81
2019-01-15T03:36:50.136Z,988.79
2019-01-15T03:37:50.074Z,988.79
2019-01-15T03:38:50.010Z,988.76
2019-01-15T03:39:49.950Z,988.81
2019-01-15T03:40:49.891Z,988.82
2019-01-15T03:41:49.928Z,988.81
2019-01-15T03:42:49.766Z,988.80
2019-01-15T03:43:49.706Z,988.79
2019-01-15T03:44:49.643Z,988.78
2019-01-15T03:45:49.581Z,988.78
2019-01-15T03:46:49.535Z,988.75
2019-01-15T03:47:49.460Z,988.78
2019-01-15T03:48:49.397Z,988.70
2019-01-15T03:49:49.335Z,988.71
2019-01-15T03:50:49.274Z,988.69
2019-01-15T03:51:49.218Z,988.71
2019-01-15T03:52:49.151Z,988.71
2019-01-15T03:53:49.092Z,988.73
2019-01-15T03:54:49.029Z,988.74
2019-01-15T03:55:48.976Z,988.81
2019-01-15T03:56:48.906Z,988.77
2019-01-15T03:57:48.844Z,988.77
2019-01-15T03:58:48.784Z,988.72
2019-01-15T03:59:48.721Z,988.66
2019-01-15T04:00:48.660Z,988.69
2019-01-15T04:01:48.599Z,988.74
2019-01-15T04:02:48.538Z,988.80
2019-01-15T04:03:48.477Z,988.77
2019-01-15T04:04:48.413Z,988.76
2019-01-15T04:05:48.352Z,988.82
2019-01-15T04:06:48.291Z,988.83
2019-01-15T04:07:48.230Z,988.89
2019-01-15T04:08:48.172Z,988.89
2019-01-15T04:09:48.109Z,988.95
2019-01-15T04:10:48.046Z,988.95
2019-01-15T04:11:47.985Z,988.97
2019-01-15T04:12:47.938Z,988.94
2019-01-15T04:13:47.861Z,988.96
2019-01-15T04:14:47.800Z,988.87
2019-01-15T04:15:47.739Z,988.84
2019-01-15T04:16:47.678Z,988.84
2019-01-15T04:17:47.614Z,988.80
2019-01-15T04:18:47.553Z,988.78
2019-01-15T04:19:47.493Z,988.79
2019-01-15T04:20:47.433Z,988.73
2019-01-15T04:21:47.369Z,988.79
2019-01-15T04:22:47.314Z,988.82
2019-01-15T04:23:47.249Z,988.84
2019-01-15T04:24:47.185Z,988.84
2019-01-15T04:25:47.123Z,988.89
2019-01-15T04:26:47.071Z,988.87
2019-01-15T04:27:47.001Z,988.82
2019-01-15T04:28:46.938Z,988.80
2019-01-15T04:29:46.880Z,988.75
2019-01-15T04:30:46.820Z,988.80
2019-01-15T04:31:46.754Z,988.79
2019-01-15T04:32:46.703Z,988.81
2019-01-15T04:33:46.631Z,988.85
2019-01-15T04:34:46.572Z,988.85
2019-01-15T04:35:46.567Z,988.86
2019-01-15T04:36:46.446Z,988.83
2019-01-15T04:37:46.637Z,988.85
2019-01-15T04:38:46.324Z,988.86
2019-01-15T04:39:46.263Z,988.81
2019-01-15T04:40:46.202Z,988.79
2019-01-15T04:41:46.141Z,988.75
2019-01-15T04:42:46.082Z,988.71
2019-01-15T04:43:46.018Z,988.61
2019-01-15T04:44:45.955Z,988.47
2019-01-15T04:45:45.893Z,988.44
2019-01-15T04:46:45.832Z,988.34
2019-01-15T04:47:45.770Z,988.27
2019-01-15T04:48:45.709Z,988.28
2019-01-15T04:49:45.648Z,988.30
2019-01-15T04:50:45.586Z,988.37
2019-01-15T04:51:45.525Z,988.39
2019-01-15T04:52:45.462Z,988.41
2019-01-15T04:53:45.400Z,988.45
2019-01-15T04:54:45.343Z,988.41
2019-01-15T04:55:45.281Z,988.42
2019-01-15T04:56:45.237Z,988.31
2019-01-15T04:57:45.164Z,988.35
2019-01-15T04:58:46.364Z,988.36
2019-01-15T04:59:45.034Z,988.43
2019-01-15T05:00:44.973Z,988.42
2019-01-15T05:01:44.910Z,988.40
2019-01-15T05:02:44.853Z,988.39
2019-01-15T05:03:44.788Z,988.44
2019-01-15T05:04:44.725Z,988.45
2019-01-15T05:05:44.663Z,988.43
2019-01-15T05:06:44.605Z,988.48
2019-01-15T05:07:44.544Z,988.48
2019-01-15T05:08:44.480Z,988.56
2019-01-15T05:09:44.418Z,988.54
2019-01-15T05:10:44.357Z,988.63
2019-01-15T05:11:44.299Z,988.71
2019-01-15T05:12:44.234Z,988.71
2019-01-15T05:13:44.171Z,988.73
2019-01-15T05:14:44.114Z,988.76
2019-01-15T05:15:44.049Z,988.79
2019-01-15T05:16:43.986Z,988.84
2019-01-15T05:17:43.924Z,988.91
2019-01-15T05:18:43.863Z,988.86
2019-01-15T05:19:43.802Z,988.91
2019-01-15T05:20:43.742Z,988.95
2019-01-15T05:21:43.682Z,988.97
2019-01-15T05:22:43.619Z,988.93
2019-01-15T05:23:43.562Z,988.94
2019-01-15T05:24:43.498Z,988.88
2019-01-15T05:25:43.435Z,988.82
2019-01-15T05:26:43.375Z,988.80
2019-01-15T05:27:43.312Z,988.76
2019-01-15T05:28:43.254Z,988.75
2019-01-15T05:29:43.187Z,988.81
2019-01-15T05:30:43.128Z,988.82
2019-01-15T05:31:43.069Z,988.84
2019-01-15T05:32:43.003Z,988.81
2019-01-15T05:33:42.941Z,988.87
2019-01-15T05:34:42.883Z,988.86
2019-01-15T05:35:42.818Z,988.91
2019-01-15T05:36:42.756Z,988.91
2019-01-15T05:37:42.703Z,988.90
2019-01-15T05:38:42.635Z,988.88
2019-01-15T05:39:42.572Z,988.91
2019-01-15T05:40:42.512Z,988.87
2019-01-15T05:41:42.461Z,988.87
2019-01-15T05:42:42.395Z,988.89
2019-01-15T05:43:42.326Z,988.95
2019-01-15T05:44:42.264Z,988.91
2019-01-15T05:45:42.212Z,988.98
2019-01-15T05:46:42.142Z,988.94
2019-01-15T05:47:42.085Z,988.97
2019-01-15T05:48:42.020Z,988.99
2019-01-15T05:49:41.957Z,989.04
2019-01-15T05:50:41.896Z,989.02
2019-01-15T05:51:41.837Z,989.01
2019-01-15T05:52:41.778Z,989.02
2019-01-15T05:53:41.710Z,989.04
2019-01-15T05:54:41.651Z,989.00
2019-01-15T05:55:41.588Z,989.07
2019-01-15T05:56:41.527Z,989.04
2019-01-15T05:57:41.464Z,989.04
2019-01-15T05:58:41.403Z,989.06
2019-01-15T05:59:41.341Z,989.06
2019-01-15T06:00:41.279Z,989.04
2019-01-15T06:01:41.219Z,989.00
2019-01-15T06:02:41.157Z,988.94
2019-01-15T06:03:41.131Z,988.94
2019-01-15T06:04:41.034Z,988.97
2019-01-15T06:05:40.974Z,989.01
2019-01-15T06:06:40.910Z,989.00
2019-01-15T06:07:40.849Z,988.97
2019-01-15T06:08:40.791Z,989.01
2019-01-15T06:09:40.725Z,989.03
2019-01-15T06:10:40.665Z,989.08
2019-01-15T06:11:40.604Z,989.03
2019-01-15T06:12:40.541Z,989.03
2019-01-15T06:13:42.795Z,989.04
2019-01-15T06:14:40.419Z,989.03
2019-01-15T06:15:40.360Z,989.04
2019-01-15T06:16:40.296Z,989.00
2019-01-15T06:17:40.234Z,989.05
2019-01-15T06:18:40.173Z,989.03
2019-01-15T06:19:40.111Z,989.04
2019-01-15T06:20:40.050Z,989.00
2019-01-15T06:21:39.987Z,989.03
2019-01-15T06:22:39.927Z,988.96
2019-01-15T06:23:39.866Z,988.99
2019-01-15T06:24:39.803Z,988.98
2019-01-15T06:25:39.742Z,988.96
2019-01-15T06:26:39.681Z,988.98
2019-01-15T06:27:39.682Z,989.01
2019-01-15T06:28:39.557Z,988.99
2019-01-15T06:29:39.495Z,989.04
2019-01-15T06:30:39.433Z,989.03
2019-01-15T06:31:39.373Z,989.00
2019-01-15T06:32:39.313Z,989.03
2019-01-15T06:33:39.249Z,988.99
2019-01-15T06:34:39.191Z,989.00
2019-01-15T06:35:39.127Z,989.04
2019-01-15T06:36:39.064Z,989.04
2019-01-15T06:37:39.004Z,989.00
2019-01-15T06:38:38.943Z,989.04
2019-01-15T06:39:38.883Z,988.97
2019-01-15T06:40:38.818Z,989.01
2019-01-15T06:41:38.757Z,988.97
2019-01-15T06:42:38.696Z,988.96
2019-01-15T06:43:38.634Z,988.92
2019-01-15T06:44:38.672Z,988.88
2019-01-15T06:45:38.513Z,988.94
2019-01-15T06:46:38.451Z,988.95
2019-01-15T06:47:38.391Z,988.94
2019-01-15T06:48:38.325Z,988.96
2019-01-15T06:49:38.264Z,988.98
2019-01-15T06:50:38.203Z,988.99
2019-01-15T06:51:38.141Z,988.99
2019-01-15T06:52:40.891Z,989.00
2019-01-15T06:53:38.020Z,989.00
2019-01-15T06:54:37.957Z,988.99
2019-01-15T06:55:37.898Z,989.02
2019-01-15T06:56:37.832Z,988.91
2019-01-15T06:57:37.771Z,988.96
2019-01-15T06:58:37.711Z,988.93
2019-01-15T06:59:37.649Z,988.91
2019-01-15T07:00:37.585Z,988.86
2019-01-15T07:01:37.525Z,988.87
2019-01-15T07:02:37.463Z,988.89
2019-01-15T07:03:37.403Z,988.88
2019-01-15T07:04:43.655Z,988.92
2019-01-15T07:05:37.281Z,988.92
2019-01-15T07:06:37.218Z,988.97
2019-01-15T07:07:37.157Z,988.87
2019-01-15T07:08:37.097Z,988.94
2019-01-15T07:09:37.108Z,988.92
2019-01-15T07:10:36.973Z,988.96
2019-01-15T07:11:36.913Z,988.89
2019-01-15T07:12:36.851Z,988.85
2019-01-15T07:13:36.785Z,988.90
2019-01-15T07:14:36.725Z,988.96
2019-01-15T07:15:36.664Z,988.96
2019-01-15T07:16:36.602Z,989.01
2019-01-15T07:17:36.541Z,988.98
2019-01-15T07:18:36.480Z,988.98
2019-01-15T07:19:36.417Z,988.98
2019-01-15T07:20:36.355Z,988.97
2019-01-15T07:21:36.294Z,989.04
2019-01-15T07:22:36.233Z,989.04
2019-01-15T07:23:36.171Z,989.05
2019-01-15T07:24:36.110Z,989.12
2019-01-15T07:25:36.050Z,989.12
2019-01-15T07:26:35.987Z,989.10
2019-01-15T07:27:35.925Z,989.06
2019-01-15T07:28:35.863Z,989.01
2019-01-15T07:29:35.802Z,989.00
2019-01-15T07:30:35.739Z,988.99
2019-01-15T07:31:35.680Z,989.00
2019-01-15T07:32:35.617Z,988.96
2019-01-15T07:33:35.555Z,988.94
2019-01-15T07:34:35.494Z,988.95
2019-01-15T07:35:35.433Z,988.95
2019-01-15T07:36:35.369Z,988.99
2019-01-15T07:37:35.308Z,989.01
2019-01-15T07:38:35.247Z,989.09
2019-01-15T07:39:35.185Z,989.07
2019-01-15T07:40:35.125Z,989.10
2019-01-15T07:41:35.062Z,989.05
2019-01-15T07:42:35.000Z,989.07
2019-01-15T07:43:34.939Z,989.05
2019-01-15T07:44:34.882Z,989.03
2019-01-15T07:45:34.818Z,988.98
2019-01-15T07:46:34.754Z,988.99
2019-01-15T07:47:34.700Z,989.01
2019-01-15T07:48:34.631Z,988.99
2019-01-15T07:49:34.569Z,989.03
2019-01-15T07:50:34.507Z,989.01
2019-01-15T07:51:34.446Z,988.98
2019-01-15T07:52:36.902Z,988.90
2019-01-15T07:53:34.322Z,988.87
2019-01-15T07:54:34.263Z,988.87
2019-01-15T07:55:34.201Z,988.84
2019-01-15T07:56:34.140Z,988.84
2019-01-15T07:57:34.077Z,988.83
2019-01-15T07:58:34.015Z,988.88
2019-01-15T07:59:33.953Z,988.87
2019-01-15T08:00:33.892Z,988.90
2019-01-15T08:01:33.833Z,988.90
2019-01-15T08:02:33.768Z,988.91
2019-01-15T08:03:33.709Z,988.94
2019-01-15T08:04:33.645Z,989.00
2019-01-15T08:05:33.588Z,989.05
2019-01-15T08:06:33.525Z,989.02
2019-01-15T08:07:33.462Z,989.03
2019-01-15T08:08:33.399Z,989.05
2019-01-15T08:09:33.338Z,989.06
2019-01-15T08:10:33.276Z,989.06
2019-01-15T08:11:33.216Z,989.07
2019-01-15T08:12:33.152Z,989.08
2019-01-15T08:13:33.091Z,989.07
2019-01-15T08:14:33.033Z,989.10
2019-01-15T08:15:32.969Z,989.10
2019-01-15T08:16:32.907Z,989.13
2019-01-15T08:17:32.845Z,989.15
2019-01-15T08:18:32.783Z,989.11
2019-01-15T08:19:32.722Z,989.16
2019-01-15T08:20:32.660Z,989.12
2019-01-15T08:21:32.599Z,989.16
2019-01-15T08:22:32.537Z,989.15
2019-01-15T08:23:32.476Z,989.16
2019-01-15T08:24:32.413Z,989.14
2019-01-15T08:25:32.354Z,989.15
2019-01-15T08:26:32.290Z,989.18
2019-01-15T08:27:32.229Z,989.17
2019-01-15T08:28:32.170Z,989.18
2019-01-15T08:29:32.106Z,989.17
2019-01-15T08:30:32.043Z,989.14
2019-01-15T08:31:31.982Z,989.13
2019-01-15T08:32:31.920Z,989.11
2019-01-15T08:33:31.860Z,989.12
2019-01-15T08:34:31.798Z,989.09
2019-01-15T08:35:31.739Z,989.04
2019-01-15T08:36:31.676Z,989.04
2019-01-15T08:37:31.612Z,989.05
2019-01-15T08:38:31.553Z,989.06
2019-01-15T08:39:31.492Z,989.02
2019-01-15T08:40:31.427Z,989.03
2019-01-15T08:41:31.371Z,989.06
2019-01-15T08:42:31.307Z,989.06
2019-01-15T08:43:31.245Z,989.04
2019-01-15T08:44:31.189Z,989.04
2019-01-15T08:45:31.122Z,989.10
2019-01-15T08:46:31.060Z,989.17
2019-01-15T08:47:31.022Z,989.10
2019-01-15T08:48:30.934Z,989.15
2019-01-15T08:49:30.874Z,989.16
2019-01-15T08:50:30.813Z,989.15
2019-01-15T08:51:30.752Z,989.21
2019-01-15T08:52:30.689Z,989.26
2019-01-15T08:53:30.627Z,989.23
2019-01-15T08:54:30.568Z,989.29
2019-01-15T08:55:30.504Z,989.28
2019-01-15T08:56:30.441Z,989.27
2019-01-15T08:57:30.393Z,989.25
2019-01-15T08:58:30.322Z,989.26
2019-01-15T08:59:30.259Z,989.26
2019-01-15T09:00:30.195Z,989.21
2019-01-15T09:01:30.145Z,989.21
2019-01-15T09:02:30.074Z,989.15
2019-01-15T09:03:30.012Z,989.16
2019-01-15T09:04:29.948Z,989.18
2019-01-15T09:05:29.889Z,989.16
2019-01-15T09:06:29.828Z,989.19
2019-01-15T09:07:29.766Z,989.18
2019-01-15T09:08:29.704Z,989.27
2019-01-15T09:09:29.641Z,989.28
2019-01-15T09:10:29.579Z,989.28
2019-01-15T09:11:30.583Z,989.27
2019-01-15T09:12:29.458Z,989.28
2019-01-15T09:13:29.393Z,989.27
2019-01-15T09:14:29.338Z,989.24
2019-01-15T09:15:29.273Z,989.23
2019-01-15T09:16:29.209Z,989.28
2019-01-15T09:17:29.148Z,989.28
2019-01-15T09:18:29.087Z,989.26
2019-01-15T09:19:29.025Z,989.31
2019-01-15T09:20:28.965Z,989.25
2019-01-15T09:21:28.906Z,989.31
2019-01-15T09:22:28.841Z,989.28
2019-01-15T09:23:28.778Z,989.26
2019-01-15T09:24:28.719Z,989.24
2019-01-15T09:25:28.678Z,989.24
2019-01-15T09:26:28.594Z,989.19
2019-01-15T09:27:28.532Z,989.25
2019-01-15T09:28:28.472Z,989.24
2019-01-15T09:29:28.408Z,989.23
2019-01-15T09:30:28.349Z,989.21
2019-01-15T09:31:28.286Z,989.27
2019-01-15T09:32:28.225Z,989.18
2019-01-15T09:33:28.165Z,989.18
2019-01-15T09:34:28.100Z,989.13
2019-01-15T09:35:28.041Z,989.14
2019-01-15T09:36:27.982Z,989.13
2019-01-15T09:37:27.915Z,989.11
2019-01-15T09:38:27.854Z,989.13
2019-01-15T09:39:27.793Z,989.15
2019-01-15T09:40:27.731Z,989.16
2019-01-15T09:41:27.669Z,989.15
2019-01-15T09:42:27.607Z,989.21
2019-01-15T09:43:27.547Z,989.15
2019-01-15T09:44:33.824Z,989.19
2019-01-15T09:45:27.423Z,989.17
2019-01-15T09:46:27.364Z,989.14
2019-01-15T09:47:27.304Z,989.18
2019-01-15T09:48:27.237Z,989.24
2019-01-15T09:49:27.178Z,989.22
2019-01-15T09:50:27.114Z,989.23
2019-01-15T09:51:27.054Z,989.19
2019-01-15T09:52:26.992Z,989.25
2019-01-15T09:53:26.931Z,989.24
2019-01-15T09:54:26.870Z,989.20
2019-01-15T09:55:26.807Z,989.19
2019-01-15T09:56:26.745Z,989.14
2019-01-15T09:57:26.685Z,989.21
2019-01-15T09:58:26.623Z,989.27
2019-01-15T09:59:26.561Z,989.30
2019-01-15T10:00:26.503Z,989.26
2019-01-15T10:01:26.440Z,989.26
2019-01-15T10:02:26.377Z,989.26
2019-01-15T10:03:26.315Z,989.23
2019-01-15T10:04:26.253Z,989.23
2019-01-15T10:05:26.190Z,989.23
2019-01-15T10:06:26.134Z,989.20
2019-01-15T10:07:26.068Z,989.17
2019-01-15T10:08:26.007Z,989.17
2019-01-15T10:09:25.944Z,989.17
2019-01-15T10:10:25.887Z,989.18
2019-01-15T10:11:25.824Z,989.19
2019-01-15T10:12:25.759Z,989.11
2019-01-15T10:13:25.698Z,989.08
2019-01-15T10:14:25.637Z,989.11
2019-01-15T10:15:25.575Z,989.01
2019-01-15T10:16:25.514Z,989.11
2019-01-15T10:17:25.451Z,989.07
2019-01-15T10:18:25.390Z,989.09
2019-01-15T10:19:25.328Z,989.03
2019-01-15T10:20:25.270Z,988.98
2019-01-15T10:21:25.206Z,989.02
2019-01-15T10:22:25.147Z,989.03
2019-01-15T10:23:25.084Z,989.03
2019-01-15T10:24:25.020Z,989.02
2019-01-15T10:25:24.959Z,989.02
2019-01-15T10:26:24.898Z,989.03
2019-01-15T10:27:24.835Z,989.01
2019-01-15T10:28:24.773Z,988.98
2019-01-15T10:29:24.713Z,988.99
2019-01-15T10:30:24.650Z,988.97
2019-01-15T10:31:24.590Z,988.98
2019-01-15T10:32:24.527Z,988.96
2019-01-15T10:33:24.467Z,988.96
2019-01-15T10:34:24.403Z,988.88
2019-01-15T10:35:24.343Z,988.87
2019-01-15T10:36:24.280Z,988.85
2019-01-15T10:37:24.219Z,988.87
2019-01-15T10:38:24.161Z,988.80
2019-01-15T10:39:24.096Z,988.80
2019-01-15T10:40:24.038Z,988.77
2019-01-15T10:41:23.973Z,988.77
2019-01-15T10:42:23.911Z,988.69
2019-01-15T10:43:23.852Z,988.70
2019-01-15T10:44:23.788Z,988.77
2019-01-15T10:45:23.725Z,988.75
2019-01-15T10:46:23.665Z,988.76
2019-01-15T10:47:23.607Z,988.74
2019-01-15T10:48:23.545Z,988.76
2019-01-15T10:49:23.480Z,988.80
2019-01-15T10:50:23.420Z,988.75
2019-01-15T10:51:23.359Z,988.80
2019-01-15T10:52:23.294Z,988.78
2019-01-15T10:53:23.234Z,988.77
2019-01-15T10:54:23.172Z,988.74
2019-01-15T10:55:23.111Z,988.65
2019-01-15T10:56:23.050Z,988.67
2019-01-15T10:57:22.988Z,988.56
2019-01-15T10:58:22.925Z,988.53
2019-01-15T10:59:22.865Z,988.52
2019-01-15T11:00:22.802Z,988.44
2019-01-15T11:01:22.745Z,988.45
2019-01-15T11:02:22.680Z,988.44
2019-01-15T11:03:22.620Z,988.44
2019-01-15T11:04:22.556Z,988.47
2019-01-15T11:05:22.494Z,988.43
2019-01-15T11:06:22.434Z,988.38
2019-01-15T11:07:22.392Z,988.35
2019-01-15T11:08:22.309Z,988.38
2019-01-15T11:09:22.252Z,988.37
2019-01-15T11:10:22.190Z,988.36
2019-01-15T11:11:22.153Z,988.43
2019-01-15T11:12:22.063Z,988.37
2019-01-15T11:13:22.001Z,988.41
2019-01-15T11:14:21.940Z,988.40
2019-01-15T11:15:21.880Z,988.38
2019-01-15T11:16:21.818Z,988.36
2019-01-15T11:17:21.756Z,988.34
2019-01-15T11:18:21.759Z,988.34
2019-01-15T11:19:21.634Z,988.27
2019-01-15T11:20:21.572Z,988.30
2019-01-15T11:21:21.509Z,988.26
2019-01-15T11:22:21.462Z,988.33
2019-01-15T11:23:21.392Z,988.30
2019-01-15T11:24:21.325Z,988.28
2019-01-15T11:25:21.265Z,988.27
2019-01-15T11:26:21.203Z,988.24
2019-01-15T11:27:21.141Z,988.21
2019-01-15T11:28:21.086Z,988.20
2019-01-15T11:29:21.020Z,988.21
2019-01-15T11:30:20.968Z,988.26
2019-01-15T11:31:20.897Z,988.19
2019-01-15T11:32:20.833Z,988.13
2019-01-15T11:33:20.771Z,988.18
2019-01-15T11:34:20.711Z,988.18
2019-01-15T11:35:20.651Z,988.16
2019-01-15T11:36:20.587Z,988.19
2019-01-15T11:37:21.917Z,988.21
2019-01-15T11:38:20.468Z,988.22
2019-01-15T11:39:20.403Z,988.14
2019-01-15T11:40:20.341Z,988.19
2019-01-15T11:41:20.287Z,988.12
2019-01-15T11:42:20.222Z,988.14
2019-01-15T11:43:20.159Z,988.09
2019-01-15T11:44:20.099Z,988.03
2019-01-15T11:45:20.056Z,987.99
2019-01-15T11:46:19.993Z,988.06
2019-01-15T11:47:19.912Z,987.95
2019-01-15T11:48:19.849Z,987.98
2019-01-15T11:49:19.788Z,987.92
2019-01-15T11:50:19.734Z,987.94
2019-01-15T11:51:19.667Z,987.96
2019-01-15T11:52:19.607Z,987.99
2019-01-15T11:53:19.542Z,987.97
2019-01-15T11:54:19.481Z,987.95
2019-01-15T11:55:21.201Z,987.91
2019-01-15T11:56:19.359Z,987.88
2019-01-15T11:57:19.296Z,987.82
2019-01-15T11:58:19.236Z,987.72
2019-01-15T11:59:19.175Z,987.81
2019-01-15T12:00:19.111Z,987.76
2019-01-15T12:01:19.050Z,987.77
2019-01-15T12:02:22.300Z,987.81
2019-01-15T12:03:18.929Z,987.84
2019-01-15T12:04:18.875Z,987.82
2019-01-15T12:05:18.807Z,987.82
2019-01-15T12:06:18.749Z,987.82
2019-01-15T12:07:18.685Z,987.77
2019-01-15T12:08:18.637Z,987.76
2019-01-15T12:09:18.559Z,987.76
2019-01-15T12:10:18.500Z,987.66
2019-01-15T12:11:18.438Z,987.57
2019-01-15T12:12:18.377Z,987.65
2019-01-15T12:13:18.323Z,987.58
2019-01-15T12:14:18.254Z,987.61
2019-01-15T12:15:18.198Z,987.52
2019-01-15T12:16:18.132Z,987.51
2019-01-15T12:17:18.071Z,987.54
2019-01-15T12:18:18.010Z,987.50
2019-01-15T12:19:17.954Z,987.53
2019-01-15T12:20:17.899Z,987.49
2019-01-15T12:21:17.821Z,987.53
2019-01-15T12:22:17.760Z,987.53
2019-01-15T12:23:17.701Z,987.48
2019-01-15T12:24:17.642Z,987.54
2019-01-15T12:25:17.733Z,987.57
2019-01-15T12:26:17.520Z,987.52
2019-01-15T12:27:17.459Z,987.49